MSC Sabrina — 3FMG8 — position and weather

sailwx.info

Track history (hours):
 
Tides and Currents Weather Stations Pressure Air Temp Water Temp Dewpoint Dewpoint Depression Visibility Wind Speed Wind Dir Waves Ship Positions

MSC Sabrina

Last reported at 2018-Feb-13 16:40 UTC. Time now 2018-Feb-18 22:25 UTC.
Position N 04°52' W 000°40'.

Length 224 m; beam 32.2 m; draft 12.1 m.

Type: Ship (hazmat cat A). MMSI: 356101000.

Date/timePositionNaut miles runAvg speedWind from/ knotsBaromVisibWave heightAir tempDewpointWater temp
2018-Feb-13 16:40N 04°52' W 000°40'215.6
2018-Feb-13 16:30N 04°53' W 000°37'915.5
2018-Feb-13 15:57N 04°56' W 000°29'715.4
2018-Feb-13 15:30N 04°58' W 000°23'715.2
2018-Feb-13 15:01N 05°01' W 000°16'815.1
2018-Feb-13 14:30N 05°03' W 000°08'815.1
2018-Feb-13 13:59N 05°05' W 000°01'1015.2
2018-Feb-13 13:19N 05°09' E 000°09'514.8
2018-Feb-13 13:00N 05°11' E 000°13'714.8
2018-Feb-13 12:30N 05°13' E 000°20'714.7
2018-Feb-13 12:00N 05°14' E 000°27'915.0
2018-Feb-13 11:23N 05°18' E 000°36'59 4.7
2018-Feb-12 22:49N 06°04' E 001°14'0 0.0
2018-Feb-12 22:04N 06°04' E 001°14'0 0.0
2018-Feb-12 21:40N 06°04' E 001°14'0 0.0
2018-Feb-12 21:22N 06°04' E 001°14'0 0.6
2018-Feb-12 21:00N 06°03' E 001°14'3 6.2
2018-Feb-12 20:29N 06°03' E 001°17'5 8.0
2018-Feb-12 19:53N 06°08' E 001°18'2 0.1
2018-Feb-12 02:17N 06°08' E 001°17'1 1.5
2018-Feb-12 01:47N 06°08' E 001°17'1 2.7
2018-Feb-12 01:30N 06°08' E 001°18'2 3.9
2018-Feb-12 00:59N 06°07' E 001°20'12 7.4
2018-Feb-11 23:23N 05°55' E 001°20'2016.4
2018-Feb-11 22:11N 05°39' E 001°09'617.2
2018-Feb-11 21:52N 05°35' E 001°05'2417.9
2018-Feb-11 20:30N 05°26' E 000°42'917.7
2018-Feb-11 20:00N 05°23' E 000°34'917.5
2018-Feb-11 19:30N 05°21' E 000°26'917.6
2018-Feb-11 19:00N 05°18' E 000°17'917.8
2018-Feb-11 18:29N 05°15' E 000°09'918.2
2018-Feb-11 18:00N 05°11' E 000°00'918.1
2018-Feb-11 17:30N 05°09' W 000°08'918.0
2018-Feb-11 17:00N 05°06' W 000°17'917.8
2018-Feb-11 16:29N 05°03' W 000°25'817.7
2018-Feb-11 16:00N 04°60' W 000°33'917.7
2018-Feb-11 15:30N 04°57' W 000°42'917.6
2018-Feb-11 15:00N 04°54' W 000°50'917.5
2018-Feb-11 14:30N 04°51' W 000°58'917.4
2018-Feb-11 14:00N 04°49' W 001°07'917.2
2018-Feb-11 13:30N 04°45' W 001°15'  
2018-Feb-05 21:58N 05°03' W 000°08'715.0
2018-Feb-05 21:30N 05°05' W 000°02'1215.0
2018-Feb-05 20:44N 05°10' E 000°09'414.8
2018-Feb-05 20:29N 05°10' E 000°13'715.0
2018-Feb-05 20:00N 05°12' E 000°20'814.9
2018-Feb-05 19:30N 05°15' E 000°27'714.7
2018-Feb-05 19:00N 05°17' E 000°34'814.9
2018-Feb-05 18:29N 05°19' E 000°41'1514.9
2018-Feb-05 17:30N 05°25' E 000°55'3014.9
2018-Feb-05 15:30N 05°48' E 001°14'1514.5
2018-Feb-05 14:30N 05°59' E 001°23'11 0.7
2018-Feb-04 22:15N 06°08' E 001°17'0 0.0
2018-Feb-04 21:45N 06°08' E 001°16'0 0.0
2018-Feb-04 21:27N 06°08' E 001°17'0 0.0
2018-Feb-04 21:00N 06°08' E 001°17'0 0.0
2018-Feb-04 20:00N 06°08' E 001°17'0 0.0
2018-Feb-04 19:30N 06°08' E 001°17'0 0.0
2018-Feb-04 18:57N 06°08' E 001°17'0 0.0
2018-Feb-04 18:30N 06°08' E 001°17'0 0.0
2018-Feb-04 18:00N 06°08' E 001°17'0 0.0
2018-Feb-04 17:30N 06°08' E 001°17'3 0.8
2018-Feb-04 14:11N 06°08' E 001°19'1 5.1
2018-Feb-04 14:00N 06°07' E 001°20'9 1.3
2018-Feb-04 07:03N 06°01' E 001°13'0 0.0
2018-Feb-04 06:57N 06°01' E 001°13'0 0.0
2018-Feb-04 06:27N 06°01' E 001°13'0 0.0
2018-Feb-04 05:51N 06°01' E 001°13'0 0.0
2018-Feb-04 05:30N 06°01' E 001°13'0 0.0
2018-Feb-04 03:39N 06°01' E 001°13'0 0.0
2018-Feb-04 03:21N 06°01' E 001°13'0 0.0
2018-Feb-04 03:00N 06°01' E 001°13'0 0.0
2018-Feb-04 02:27N 06°01' E 001°13'0 0.0
2018-Feb-04 02:00N 06°01' E 001°13'0 0.0
2018-Feb-04 01:27N 06°01' E 001°13'0 0.0
2018-Feb-04 01:00N 06°01' E 001°13'0 0.0
2018-Feb-04 00:30N 06°01' E 001°13'0 0.0
2018-Feb-04 00:00N 06°01' E 001°13'0 0.0
2018-Feb-03 23:30N 06°01' E 001°13'0 0.0
2018-Feb-03 23:00N 06°01' E 001°13'0 0.0
2018-Feb-03 22:30N 06°01' E 001°13'0 0.0
2018-Feb-03 22:00N 06°01' E 001°13'0 0.0
2018-Feb-03 21:30N 06°01' E 001°13'0 0.0
2018-Feb-03 21:00N 06°01' E 001°13'0 0.0
2018-Feb-03 20:27N 06°01' E 001°13'0 0.0
2018-Feb-03 20:00N 06°01' E 001°13'0 0.0
2018-Feb-03 18:30N 06°01' E 001°13'0 0.0
2018-Feb-03 18:00N 06°01' E 001°13'0 0.1
2018-Feb-03 17:30N 06°01' E 001°13'0 0.0
2018-Feb-03 17:00N 06°01' E 001°13'  
Track history (hours):
 
Tides and Currents Weather Stations Pressure Air Temp Water Temp Dewpoint Dewpoint Depression Visibility Wind Speed Wind Dir Waves Ship Positions

MSC Sabrina

Last reported at 2018-Feb-13 16:40 UTC. Time now 2018-Feb-18 22:25 UTC.
Position N 04°52' W 000°40'.

Length 224 m; beam 32.2 m; draft 12.1 m.

Type: Ship (hazmat cat A). MMSI: 356101000.

Date/timePositionNaut miles runAvg speedWind from/ knotsBaromVisibWave heightAir tempDewpointWater temp
2018-Feb-13 16:40N 04°52' W 000°40'215.6
2018-Feb-13 16:30N 04°53' W 000°37'915.5
2018-Feb-13 15:57N 04°56' W 000°29'715.4
2018-Feb-13 15:30N 04°58' W 000°23'715.2
2018-Feb-13 15:01N 05°01' W 000°16'815.1
2018-Feb-13 14:30N 05°03' W 000°08'815.1
2018-Feb-13 13:59N 05°05' W 000°01'1015.2
2018-Feb-13 13:19N 05°09' E 000°09'514.8
2018-Feb-13 13:00N 05°11' E 000°13'714.8
2018-Feb-13 12:30N 05°13' E 000°20'714.7
2018-Feb-13 12:00N 05°14' E 000°27'915.0
2018-Feb-13 11:23N 05°18' E 000°36'59 4.7
2018-Feb-12 22:49N 06°04' E 001°14'0 0.0
2018-Feb-12 22:04N 06°04' E 001°14'0 0.0
2018-Feb-12 21:40N 06°04' E 001°14'0 0.0
2018-Feb-12 21:22N 06°04' E 001°14'0 0.6
2018-Feb-12 21:00N 06°03' E 001°14'3 6.2
2018-Feb-12 20:29N 06°03' E 001°17'5 8.0
2018-Feb-12 19:53N 06°08' E 001°18'2 0.1
2018-Feb-12 02:17N 06°08' E 001°17'1 1.5
2018-Feb-12 01:47N 06°08' E 001°17'1 2.7
2018-Feb-12 01:30N 06°08' E 001°18'2 3.9
2018-Feb-12 00:59N 06°07' E 001°20'12 7.4
2018-Feb-11 23:23N 05°55' E 001°20'2016.4
2018-Feb-11 22:11N 05°39' E 001°09'617.2
2018-Feb-11 21:52N 05°35' E 001°05'2417.9
2018-Feb-11 20:30N 05°26' E 000°42'917.7
2018-Feb-11 20:00N 05°23' E 000°34'917.5
2018-Feb-11 19:30N 05°21' E 000°26'917.6
2018-Feb-11 19:00N 05°18' E 000°17'917.8
2018-Feb-11 18:29N 05°15' E 000°09'918.2
2018-Feb-11 18:00N 05°11' E 000°00'918.1
2018-Feb-11 17:30N 05°09' W 000°08'918.0
2018-Feb-11 17:00N 05°06' W 000°17'917.8
2018-Feb-11 16:29N 05°03' W 000°25'817.7
2018-Feb-11 16:00N 04°60' W 000°33'917.7
2018-Feb-11 15:30N 04°57' W 000°42'917.6
2018-Feb-11 15:00N 04°54' W 000°50'917.5
2018-Feb-11 14:30N 04°51' W 000°58'917.4
2018-Feb-11 14:00N 04°49' W 001°07'917.2
2018-Feb-11 13:30N 04°45' W 001°15'  
2018-Feb-05 21:58N 05°03' W 000°08'715.0
2018-Feb-05 21:30N 05°05' W 000°02'1215.0
2018-Feb-05 20:44N 05°10' E 000°09'414.8
2018-Feb-05 20:29N 05°10' E 000°13'715.0
2018-Feb-05 20:00N 05°12' E 000°20'814.9
2018-Feb-05 19:30N 05°15' E 000°27'714.7
2018-Feb-05 19:00N 05°17' E 000°34'814.9
2018-Feb-05 18:29N 05°19' E 000°41'1514.9
2018-Feb-05 17:30N 05°25' E 000°55'3014.9
2018-Feb-05 15:30N 05°48' E 001°14'1514.5
2018-Feb-05 14:30N 05°59' E 001°23'11 0.7
2018-Feb-04 22:15N 06°08' E 001°17'0 0.0
2018-Feb-04 21:45N 06°08' E 001°16'0 0.0
2018-Feb-04 21:27N 06°08' E 001°17'0 0.0
2018-Feb-04 21:00N 06°08' E 001°17'0 0.0
2018-Feb-04 20:00N 06°08' E 001°17'0 0.0
2018-Feb-04 19:30N 06°08' E 001°17'0 0.0
2018-Feb-04 18:57N 06°08' E 001°17'0 0.0
2018-Feb-04 18:30N 06°08' E 001°17'0 0.0
2018-Feb-04 18:00N 06°08' E 001°17'0 0.0
2018-Feb-04 17:30N 06°08' E 001°17'3 0.8
2018-Feb-04 14:11N 06°08' E 001°19'1 5.1
2018-Feb-04 14:00N 06°07' E 001°20'9 1.3
2018-Feb-04 07:03N 06°01' E 001°13'0 0.0
2018-Feb-04 06:57N 06°01' E 001°13'0 0.0
2018-Feb-04 06:27N 06°01' E 001°13'0 0.0
2018-Feb-04 05:51N 06°01' E 001°13'0 0.0
2018-Feb-04 05:30N 06°01' E 001°13'0 0.0
2018-Feb-04 03:39N 06°01' E 001°13'0 0.0
2018-Feb-04 03:21N 06°01' E 001°13'0 0.0
2018-Feb-04 03:00N 06°01' E 001°13'0 0.0
2018-Feb-04 02:27N 06°01' E 001°13'0 0.0
2018-Feb-04 02:00N 06°01' E 001°13'0 0.0
2018-Feb-04 01:27N 06°01' E 001°13'0 0.0
2018-Feb-04 01:00N 06°01' E 001°13'0 0.0
2018-Feb-04 00:30N 06°01' E 001°13'0 0.0
2018-Feb-04 00:00N 06°01' E 001°13'0 0.0
2018-Feb-03 23:30N 06°01' E 001°13'0 0.0
2018-Feb-03 23:00N 06°01' E 001°13'0 0.0
2018-Feb-03 22:30N 06°01' E 001°13'0 0.0
2018-Feb-03 22:00N 06°01' E 001°13'0 0.0
2018-Feb-03 21:30N 06°01' E 001°13'0 0.0
2018-Feb-03 21:00N 06°01' E 001°13'0 0.0
2018-Feb-03 20:27N 06°01' E 001°13'0 0.0
2018-Feb-03 20:00N 06°01' E 001°13'0 0.0
2018-Feb-03 18:30N 06°01' E 001°13'0 0.0
2018-Feb-03 18:00N 06°01' E 001°13'0 0.1
2018-Feb-03 17:30N 06°01' E 001°13'0 0.0
2018-Feb-03 17:00N 06°01' E 001°13'  

Dump ship's entire track history